createdAt,value
2018-04-30T00:00:09.048Z,0.00
2018-04-30T00:01:09.004Z,0.00
2018-04-30T00:02:08.960Z,0.00
2018-04-30T00:03:08.915Z,0.00
2018-04-30T00:04:08.872Z,0.00
2018-04-30T00:05:08.827Z,0.00
2018-04-30T00:06:08.784Z,0.00
2018-04-30T00:07:08.740Z,0.00
2018-04-30T00:08:08.695Z,0.00
2018-04-30T00:09:08.650Z,0.00
2018-04-30T00:10:08.607Z,0.00
2018-04-30T00:11:08.562Z,0.00
2018-04-30T00:12:08.518Z,0.00
2018-04-30T00:13:08.474Z,0.00
2018-04-30T00:14:08.429Z,0.00
2018-04-30T00:15:08.387Z,0.00
2018-04-30T00:16:08.341Z,0.00
2018-04-30T00:17:08.296Z,0.00
2018-04-30T00:18:08.253Z,0.00
2018-04-30T00:19:08.208Z,0.00
2018-04-30T00:20:08.164Z,0.00
2018-04-30T00:21:08.122Z,0.00
2018-04-30T00:22:08.076Z,0.00
2018-04-30T00:23:08.032Z,0.00
2018-04-30T00:24:07.987Z,0.00
2018-04-30T00:25:07.944Z,0.00
2018-04-30T00:26:07.900Z,0.00
2018-04-30T00:27:07.855Z,0.00
2018-04-30T00:28:07.811Z,0.00
2018-04-30T00:29:07.767Z,0.00
2018-04-30T00:30:07.724Z,0.00
2018-04-30T00:31:07.728Z,0.00
2018-04-30T00:32:07.634Z,0.00
2018-04-30T00:33:07.590Z,0.00
2018-04-30T00:34:07.546Z,0.00
2018-04-30T00:35:07.501Z,0.00
2018-04-30T00:36:07.457Z,0.00
2018-04-30T00:37:07.412Z,0.00
2018-04-30T00:38:07.369Z,0.00
2018-04-30T00:39:07.323Z,0.00
2018-04-30T00:40:07.280Z,0.00
2018-04-30T00:41:07.242Z,0.00
2018-04-30T00:42:07.191Z,0.00
2018-04-30T00:43:07.149Z,0.00
2018-04-30T00:44:07.102Z,0.00
2018-04-30T00:45:07.058Z,0.00
2018-04-30T00:46:07.014Z,0.00
2018-04-30T00:47:06.969Z,0.00
2018-04-30T00:48:06.927Z,0.00
2018-04-30T00:49:06.881Z,0.00
2018-04-30T00:50:06.836Z,0.00
2018-04-30T00:51:06.791Z,0.00
2018-04-30T00:52:06.747Z,0.00
2018-04-30T00:53:06.704Z,0.00
2018-04-30T00:54:06.668Z,0.00
2018-04-30T00:55:06.614Z,0.00
2018-04-30T00:56:06.570Z,0.00
2018-04-30T00:57:06.526Z,0.00
2018-04-30T00:58:06.481Z,0.00
2018-04-30T00:59:06.436Z,0.00
2018-04-30T01:00:06.392Z,0.00
2018-04-30T01:01:06.348Z,0.00
2018-04-30T01:02:06.304Z,0.00
2018-04-30T01:03:06.259Z,0.00
2018-04-30T01:04:06.215Z,0.00
2018-04-30T01:05:06.170Z,0.00
2018-04-30T01:06:06.129Z,0.00
2018-04-30T01:07:06.082Z,0.00
2018-04-30T01:08:06.037Z,0.00
2018-04-30T01:09:05.994Z,0.00
2018-04-30T01:10:05.949Z,0.00
2018-04-30T01:11:05.904Z,0.00
2018-04-30T01:12:05.911Z,0.00
2018-04-30T01:13:05.815Z,0.00
2018-04-30T01:14:05.771Z,0.00
2018-04-30T01:15:05.725Z,0.00
2018-04-30T01:16:05.682Z,0.00
2018-04-30T01:17:05.637Z,0.00
2018-04-30T01:18:05.593Z,0.00
2018-04-30T01:19:05.549Z,0.00
2018-04-30T01:20:05.504Z,0.00
2018-04-30T01:21:05.459Z,0.00
2018-04-30T01:22:05.416Z,0.00
2018-04-30T01:23:05.370Z,0.00
2018-04-30T01:24:05.326Z,0.00
2018-04-30T01:25:05.281Z,0.00
2018-04-30T01:26:05.237Z,0.00
2018-04-30T01:27:05.194Z,0.00
2018-04-30T01:28:05.151Z,0.00
2018-04-30T01:29:05.104Z,0.00
2018-04-30T01:30:05.064Z,0.00
2018-04-30T01:31:05.014Z,0.00
2018-04-30T01:32:04.970Z,0.00
2018-04-30T01:33:04.927Z,0.00
2018-04-30T01:34:04.882Z,0.00
2018-04-30T01:35:04.837Z,0.00
2018-04-30T01:36:04.792Z,0.00
2018-04-30T01:37:04.747Z,0.00
2018-04-30T01:38:04.704Z,0.00
2018-04-30T01:39:04.659Z,0.00
2018-04-30T01:40:04.614Z,0.00
2018-04-30T01:41:04.570Z,0.00
2018-04-30T01:42:04.526Z,0.00
2018-04-30T01:43:04.486Z,0.00
2018-04-30T01:44:04.437Z,0.00
2018-04-30T01:45:04.394Z,0.00
2018-04-30T01:46:04.351Z,0.00
2018-04-30T01:47:04.303Z,0.00
2018-04-30T01:48:04.308Z,0.00
2018-04-30T01:49:04.214Z,0.00
2018-04-30T01:50:04.170Z,0.00
2018-04-30T01:51:04.125Z,0.00
2018-04-30T01:52:04.103Z,0.00
2018-04-30T01:53:04.036Z,0.00
2018-04-30T01:54:03.992Z,0.00
2018-04-30T01:55:03.947Z,0.00
2018-04-30T01:56:03.905Z,0.00
2018-04-30T01:57:03.861Z,0.00
2018-04-30T01:58:03.814Z,0.00
2018-04-30T01:59:03.773Z,0.00
2018-04-30T02:00:03.725Z,0.00
2018-04-30T02:01:03.681Z,0.00
2018-04-30T02:02:03.638Z,0.00
2018-04-30T02:03:03.591Z,0.00
2018-04-30T02:04:03.546Z,0.00
2018-04-30T02:05:03.502Z,0.00
2018-04-30T02:06:03.458Z,0.00
2018-04-30T02:07:03.414Z,0.00
2018-04-30T02:08:03.369Z,0.00
2018-04-30T02:09:03.326Z,0.00
2018-04-30T02:10:03.281Z,0.00
2018-04-30T02:11:03.237Z,0.00
2018-04-30T02:12:03.228Z,0.00
2018-04-30T02:13:03.148Z,0.00
2018-04-30T02:14:03.102Z,0.00
2018-04-30T02:15:03.056Z,0.00
2018-04-30T02:16:03.015Z,0.00
2018-04-30T02:17:02.968Z,0.00
2018-04-30T02:18:02.927Z,0.00
2018-04-30T02:19:02.879Z,0.00
2018-04-30T02:20:02.834Z,0.00
2018-04-30T02:21:02.790Z,0.00
2018-04-30T02:22:02.746Z,0.00
2018-04-30T02:23:02.700Z,0.00
2018-04-30T02:24:02.656Z,0.00
2018-04-30T02:25:02.611Z,0.00
2018-04-30T02:26:02.567Z,0.00
2018-04-30T02:27:02.522Z,0.00
2018-04-30T02:28:02.478Z,0.00
2018-04-30T02:29:02.437Z,0.00
2018-04-30T02:30:02.389Z,0.00
2018-04-30T02:31:02.344Z,0.00
2018-04-30T02:32:02.299Z,0.00
2018-04-30T02:33:02.255Z,0.00
2018-04-30T02:34:02.210Z,0.00
2018-04-30T02:35:02.164Z,0.00
2018-04-30T02:36:02.125Z,0.00
2018-04-30T02:37:02.078Z,0.00
2018-04-30T02:38:02.030Z,0.00
2018-04-30T02:39:01.986Z,0.00
2018-04-30T02:40:01.941Z,0.00
2018-04-30T02:41:01.897Z,0.00
2018-04-30T02:42:01.854Z,0.00
2018-04-30T02:43:01.809Z,0.00
2018-04-30T02:44:01.764Z,0.00
2018-04-30T02:45:01.761Z,0.00
2018-04-30T02:46:01.674Z,0.00
2018-04-30T02:47:01.629Z,0.00
2018-04-30T02:48:01.584Z,0.00
2018-04-30T02:49:01.540Z,0.00
2018-04-30T02:50:01.496Z,0.00
2018-04-30T02:51:01.451Z,0.00
2018-04-30T02:52:01.405Z,0.00
2018-04-30T02:53:01.361Z,0.00
2018-04-30T02:54:01.316Z,0.00
2018-04-30T02:55:01.271Z,0.00
2018-04-30T02:56:01.225Z,0.00
2018-04-30T02:57:01.186Z,0.00
2018-04-30T02:58:01.147Z,0.00
2018-04-30T02:59:01.093Z,0.00
2018-04-30T03:00:01.047Z,0.00
2018-04-30T03:01:01.002Z,0.00
2018-04-30T03:02:00.957Z,0.00
2018-04-30T03:03:00.911Z,0.00
2018-04-30T03:04:00.868Z,0.00
2018-04-30T03:05:00.822Z,0.00
2018-04-30T03:06:00.778Z,0.00
2018-04-30T03:07:00.734Z,0.00
2018-04-30T03:08:00.688Z,0.00
2018-04-30T03:09:00.643Z,0.00
2018-04-30T03:10:00.599Z,0.00
2018-04-30T03:11:00.570Z,0.00
2018-04-30T03:12:00.511Z,0.00
2018-04-30T03:13:00.464Z,0.00
2018-04-30T03:14:00.420Z,0.00
2018-04-30T03:15:00.374Z,0.00
2018-04-30T03:16:00.330Z,0.00
2018-04-30T03:17:00.285Z,0.00
2018-04-30T03:18:00.241Z,0.00
2018-04-30T03:19:00.195Z,0.00
2018-04-30T03:20:00.150Z,0.00
2018-04-30T03:21:00.105Z,0.00
2018-04-30T03:22:00.061Z,0.00
2018-04-30T03:23:00.015Z,0.00
2018-04-30T03:23:59.970Z,0.00
2018-04-30T03:24:59.926Z,0.00
2018-04-30T03:25:59.881Z,0.00
2018-04-30T03:26:59.836Z,0.00
2018-04-30T03:27:59.791Z,0.00
2018-04-30T03:28:59.747Z,0.00
2018-04-30T03:29:59.702Z,0.00
2018-04-30T03:30:59.657Z,0.00
2018-04-30T03:31:59.612Z,0.00
2018-04-30T03:32:59.568Z,0.00
2018-04-30T03:33:59.527Z,0.00
2018-04-30T03:34:59.479Z,0.00
2018-04-30T03:35:59.433Z,5.63
2018-04-30T03:36:59.390Z,5.63
2018-04-30T03:37:59.344Z,5.63
2018-04-30T03:38:59.299Z,5.63
2018-04-30T03:39:59.254Z,5.63
2018-04-30T03:40:59.210Z,5.63
2018-04-30T03:41:59.165Z,5.63
2018-04-30T03:42:59.118Z,5.63
2018-04-30T03:43:59.075Z,11.25
2018-04-30T03:44:59.030Z,11.25
2018-04-30T03:45:58.986Z,11.25
2018-04-30T03:46:58.939Z,11.25
2018-04-30T03:47:58.894Z,11.25
2018-04-30T03:48:58.850Z,11.25
2018-04-30T03:49:58.805Z,16.88
2018-04-30T03:50:58.759Z,16.88
2018-04-30T03:51:58.715Z,16.88
2018-04-30T03:52:58.670Z,16.88
2018-04-30T03:53:58.625Z,16.88
2018-04-30T03:54:58.580Z,22.50
2018-04-30T03:55:58.534Z,22.50
2018-04-30T03:56:58.489Z,22.50
2018-04-30T03:57:58.452Z,22.50
2018-04-30T03:58:58.399Z,22.50
2018-04-30T03:59:58.355Z,28.13
2018-04-30T04:00:58.310Z,28.13
2018-04-30T04:01:58.266Z,28.13
2018-04-30T04:02:58.237Z,28.13
2018-04-30T04:03:58.175Z,28.13
2018-04-30T04:04:58.130Z,28.13
2018-04-30T04:05:58.086Z,33.75
2018-04-30T04:06:58.040Z,33.75
2018-04-30T04:07:57.995Z,33.75
2018-04-30T04:08:57.950Z,33.75
2018-04-30T04:09:57.905Z,39.38
2018-04-30T04:10:57.860Z,39.38
2018-04-30T04:11:57.815Z,39.38
2018-04-30T04:12:57.770Z,45.00
2018-04-30T04:13:57.725Z,45.00
2018-04-30T04:14:57.679Z,50.63
2018-04-30T04:15:57.634Z,50.63
2018-04-30T04:16:57.589Z,56.25
2018-04-30T04:17:57.545Z,56.25
2018-04-30T04:18:57.499Z,56.25
2018-04-30T04:19:57.454Z,61.88
2018-04-30T04:20:57.409Z,61.88
2018-04-30T04:21:57.364Z,67.50
2018-04-30T04:22:57.318Z,67.50
2018-04-30T04:23:57.274Z,67.50
2018-04-30T04:24:57.229Z,73.13
2018-04-30T04:25:57.189Z,73.13
2018-04-30T04:26:57.139Z,73.13
2018-04-30T04:27:57.094Z,73.13
2018-04-30T04:28:57.050Z,78.75
2018-04-30T04:29:57.005Z,78.75
2018-04-30T04:30:56.960Z,78.75
2018-04-30T04:31:56.915Z,84.38
2018-04-30T04:32:56.871Z,84.38
2018-04-30T04:33:56.827Z,90.00
2018-04-30T04:34:56.780Z,90.00
2018-04-30T04:35:56.736Z,95.63
2018-04-30T04:36:56.693Z,101.25
2018-04-30T04:37:56.648Z,101.25
2018-04-30T04:38:56.610Z,106.88
2018-04-30T04:39:56.557Z,106.88
2018-04-30T04:40:56.512Z,112.50
2018-04-30T04:41:56.469Z,118.13
2018-04-30T04:42:56.427Z,118.13
2018-04-30T04:43:56.378Z,123.75
2018-04-30T04:44:56.334Z,129.38
2018-04-30T04:45:56.289Z,129.38
2018-04-30T04:46:56.244Z,135.00
2018-04-30T04:47:56.202Z,140.63
2018-04-30T04:48:56.155Z,140.63
2018-04-30T04:49:56.111Z,140.63
2018-04-30T04:50:56.066Z,146.25
2018-04-30T04:51:56.065Z,151.88
2018-04-30T04:52:55.977Z,157.50
2018-04-30T04:53:55.934Z,157.50
2018-04-30T04:54:55.888Z,163.13
2018-04-30T04:55:55.844Z,163.13
2018-04-30T04:56:55.800Z,168.75
2018-04-30T04:57:55.756Z,174.38
2018-04-30T04:58:55.710Z,180.00
2018-04-30T04:59:55.667Z,185.63
2018-04-30T05:00:55.623Z,191.25
2018-04-30T05:01:55.587Z,196.88
2018-04-30T05:02:55.534Z,196.88
2018-04-30T05:03:55.490Z,202.50
2018-04-30T05:04:55.452Z,208.13
2018-04-30T05:05:55.402Z,213.75
2018-04-30T05:06:55.357Z,213.75
2018-04-30T05:07:55.313Z,219.38
2018-04-30T05:08:55.269Z,225.00
2018-04-30T05:09:55.225Z,230.63
2018-04-30T05:10:55.185Z,236.25
2018-04-30T05:11:55.136Z,247.50
2018-04-30T05:12:55.095Z,253.13
2018-04-30T05:13:55.049Z,253.13
2018-04-30T05:14:55.004Z,253.13
2018-04-30T05:15:54.960Z,253.13
2018-04-30T05:16:54.916Z,258.75
2018-04-30T05:17:54.873Z,264.38
2018-04-30T05:18:54.833Z,275.63
2018-04-30T05:19:54.834Z,270.00
2018-04-30T05:20:54.755Z,270.00
2018-04-30T05:21:54.697Z,292.50
2018-04-30T05:22:54.652Z,320.63
2018-04-30T05:23:54.613Z,315.00
2018-04-30T05:24:54.567Z,354.38
2018-04-30T05:25:54.522Z,933.75
2018-04-30T05:26:54.476Z,1029.38
2018-04-30T05:27:54.434Z,894.38
2018-04-30T05:28:54.391Z,849.38
2018-04-30T05:29:54.352Z,1080.00
2018-04-30T05:30:54.304Z,1113.75
2018-04-30T05:31:54.261Z,1153.13
2018-04-30T05:32:54.222Z,1186.88
2018-04-30T05:33:54.253Z,1147.50
2018-04-30T05:34:54.133Z,1141.88
2018-04-30T05:35:54.091Z,1192.50
2018-04-30T05:36:54.049Z,1192.50
2018-04-30T05:37:54.008Z,1164.38
2018-04-30T05:38:53.965Z,1198.13
2018-04-30T05:39:53.924Z,1276.88
2018-04-30T05:40:53.883Z,1316.25
2018-04-30T05:41:53.843Z,1321.88
2018-04-30T05:42:53.801Z,1293.75
2018-04-30T05:43:53.762Z,1293.75
2018-04-30T05:44:53.722Z,1305.00
2018-04-30T05:45:53.685Z,1288.13
2018-04-30T05:46:53.643Z,855.00
2018-04-30T05:47:53.653Z,804.38
2018-04-30T05:48:53.566Z,236.25
2018-04-30T05:49:53.527Z,253.13
2018-04-30T05:50:53.487Z,365.63
2018-04-30T05:51:53.448Z,500.63
2018-04-30T05:52:53.414Z,275.63
2018-04-30T05:53:53.371Z,230.63
2018-04-30T05:54:53.331Z,202.50
2018-04-30T05:55:53.293Z,196.88
2018-04-30T05:56:53.254Z,191.25
2018-04-30T05:57:53.213Z,185.63
2018-04-30T05:58:53.173Z,213.75
2018-04-30T05:59:53.133Z,241.88
2018-04-30T06:00:53.093Z,770.63
2018-04-30T06:01:53.053Z,247.50
2018-04-30T06:02:53.011Z,258.75
2018-04-30T06:03:52.971Z,309.38
2018-04-30T06:04:52.930Z,945.00
2018-04-30T06:05:52.889Z,1473.75
2018-04-30T06:06:52.906Z,1456.88
2018-04-30T06:07:52.808Z,1462.50
2018-04-30T06:08:52.766Z,1220.63
2018-04-30T06:09:52.727Z,1563.75
2018-04-30T06:10:52.688Z,1546.88
2018-04-30T06:11:52.651Z,1575.00
2018-04-30T06:12:52.605Z,1518.75
2018-04-30T06:13:52.565Z,1541.25
2018-04-30T06:14:52.525Z,1518.75
2018-04-30T06:15:52.493Z,1485.00
2018-04-30T06:16:52.448Z,1552.50
2018-04-30T06:17:52.410Z,1642.50
2018-04-30T06:18:52.371Z,1586.25
2018-04-30T06:19:52.337Z,1530.00
2018-04-30T06:20:52.296Z,1631.25
2018-04-30T06:21:52.260Z,1676.25
2018-04-30T06:22:52.222Z,1620.00
2018-04-30T06:23:52.186Z,1591.88
2018-04-30T06:24:52.150Z,1620.00
2018-04-30T06:25:52.114Z,1670.63
2018-04-30T06:26:52.174Z,1620.00
2018-04-30T06:27:52.042Z,1563.75
2018-04-30T06:28:52.008Z,1648.13
2018-04-30T06:29:51.973Z,1670.63
2018-04-30T06:30:51.935Z,1614.38
2018-04-30T06:31:51.900Z,1665.00
2018-04-30T06:32:51.866Z,1603.13
2018-04-30T06:33:51.831Z,1586.25
2018-04-30T06:34:51.795Z,1670.63
2018-04-30T06:35:51.815Z,1693.13
2018-04-30T06:36:51.725Z,1631.25
2018-04-30T06:37:51.693Z,1648.13
2018-04-30T06:38:51.657Z,1693.13
2018-04-30T06:39:51.624Z,1631.25
2018-04-30T06:40:51.590Z,1636.88
2018-04-30T06:41:51.557Z,1670.63
2018-04-30T06:42:51.521Z,1625.63
2018-04-30T06:43:51.491Z,1726.88
2018-04-30T06:44:51.457Z,1771.88
2018-04-30T06:45:51.420Z,1620.00
2018-04-30T06:46:51.386Z,1710.00
2018-04-30T06:47:51.353Z,1800.00
2018-04-30T06:48:51.319Z,1839.38
2018-04-30T06:49:51.286Z,1771.88
2018-04-30T06:50:51.253Z,1642.50
2018-04-30T06:51:51.219Z,1687.50
2018-04-30T06:52:51.186Z,1704.38
2018-04-30T06:53:51.155Z,1681.88
2018-04-30T06:54:51.120Z,1665.00
2018-04-30T06:55:51.088Z,1777.50
2018-04-30T06:56:51.058Z,1721.25
2018-04-30T06:57:51.023Z,1535.63
2018-04-30T06:58:50.990Z,1603.13
2018-04-30T06:59:50.957Z,1732.50
2018-04-30T07:00:50.926Z,1732.50
2018-04-30T07:01:50.897Z,1766.25
2018-04-30T07:02:50.863Z,1816.88
2018-04-30T07:03:50.830Z,1687.50
2018-04-30T07:04:50.798Z,1636.88
2018-04-30T07:05:50.768Z,1710.00
2018-04-30T07:06:50.731Z,1749.38
2018-04-30T07:07:50.699Z,1687.50
2018-04-30T07:08:50.668Z,1698.75
2018-04-30T07:09:50.644Z,1743.75
2018-04-30T07:10:50.604Z,1766.25
2018-04-30T07:11:50.572Z,1839.38
2018-04-30T07:12:50.548Z,1890.00
2018-04-30T07:13:50.510Z,1861.88
2018-04-30T07:14:50.478Z,1726.88
2018-04-30T07:15:50.447Z,1546.88
2018-04-30T07:16:50.415Z,1490.63
2018-04-30T07:17:50.384Z,1670.63
2018-04-30T07:18:50.352Z,1608.75
2018-04-30T07:19:50.322Z,1366.88
2018-04-30T07:20:50.289Z,1327.50
2018-04-30T07:21:50.260Z,1378.13
2018-04-30T07:22:50.228Z,1423.13
2018-04-30T07:23:50.197Z,1383.75
2018-04-30T07:24:50.165Z,1282.50
2018-04-30T07:25:50.136Z,1327.50
2018-04-30T07:26:50.103Z,1541.25
2018-04-30T07:27:50.099Z,1501.88
2018-04-30T07:28:50.040Z,1395.00
2018-04-30T07:29:50.008Z,1468.13
2018-04-30T07:30:49.976Z,1507.50
2018-04-30T07:31:49.948Z,1546.88
2018-04-30T07:32:49.919Z,1445.63
2018-04-30T07:33:49.881Z,1620.00
2018-04-30T07:34:49.850Z,1794.38
2018-04-30T07:35:49.817Z,1755.00
2018-04-30T07:36:49.785Z,1850.63
2018-04-30T07:37:49.754Z,1766.25
2018-04-30T07:38:49.722Z,1721.25
2018-04-30T07:39:49.691Z,1681.88
2018-04-30T07:40:49.662Z,1670.63
2018-04-30T07:41:49.629Z,1620.00
2018-04-30T07:42:49.598Z,1597.50
2018-04-30T07:43:49.568Z,1608.75
2018-04-30T07:44:49.537Z,1586.25
2018-04-30T07:45:49.507Z,1625.63
2018-04-30T07:46:49.476Z,1608.75
2018-04-30T07:47:49.496Z,1546.88
2018-04-30T07:48:49.415Z,1597.50
2018-04-30T07:49:49.386Z,1580.63
2018-04-30T07:50:49.357Z,1558.13
2018-04-30T07:51:49.325Z,1507.50
2018-04-30T07:52:49.299Z,1563.75
2018-04-30T07:53:49.266Z,1535.63
2018-04-30T07:54:49.235Z,1428.75
2018-04-30T07:55:49.206Z,1456.88
2018-04-30T07:56:49.176Z,1513.13
2018-04-30T07:57:49.147Z,1530.00
2018-04-30T07:58:49.117Z,1563.75
2018-04-30T07:59:49.088Z,1490.63
2018-04-30T08:00:49.059Z,1423.13
2018-04-30T08:01:49.030Z,1473.75
2018-04-30T08:02:49.000Z,1456.88
2018-04-30T08:03:48.970Z,1411.88
2018-04-30T08:04:48.942Z,1490.63
2018-04-30T08:05:48.913Z,1546.88
2018-04-30T08:06:48.883Z,1468.13
2018-04-30T08:07:48.854Z,1507.50
2018-04-30T08:08:48.825Z,1625.63
2018-04-30T08:09:48.797Z,1603.13
2018-04-30T08:10:48.765Z,1608.75
2018-04-30T08:11:48.743Z,1620.00
2018-04-30T08:12:48.712Z,1575.00
2018-04-30T08:13:48.679Z,1597.50
2018-04-30T08:14:48.669Z,1513.13
2018-04-30T08:15:48.623Z,1496.25
2018-04-30T08:16:48.592Z,1411.88
2018-04-30T08:17:48.563Z,1440.00
2018-04-30T08:18:48.535Z,1344.38
2018-04-30T08:19:48.511Z,1237.50
2018-04-30T08:20:48.478Z,1411.88
2018-04-30T08:21:48.449Z,1473.75
2018-04-30T08:22:48.420Z,1530.00
2018-04-30T08:23:48.392Z,1468.13
2018-04-30T08:24:48.364Z,1575.00
2018-04-30T08:25:48.335Z,1535.63
2018-04-30T08:26:48.337Z,1389.38
2018-04-30T08:27:48.280Z,1389.38
2018-04-30T08:28:48.252Z,1344.38
2018-04-30T08:29:48.225Z,1254.38
2018-04-30T08:30:48.196Z,1276.88
2018-04-30T08:31:48.172Z,1260.00
2018-04-30T08:32:48.140Z,1265.63
2018-04-30T08:33:48.115Z,1260.00
2018-04-30T08:34:48.090Z,1209.38
2018-04-30T08:35:48.056Z,1203.75
2018-04-30T08:36:48.028Z,1265.63
2018-04-30T08:37:48.002Z,1198.13
2018-04-30T08:38:47.974Z,1153.13
2018-04-30T08:39:47.949Z,1153.13
2018-04-30T08:40:47.921Z,1074.38
2018-04-30T08:41:47.893Z,967.50
2018-04-30T08:42:47.865Z,990.00
2018-04-30T08:43:47.840Z,1068.75
2018-04-30T08:44:47.812Z,1164.38
2018-04-30T08:45:47.785Z,1327.50
2018-04-30T08:46:47.758Z,1321.88
2018-04-30T08:47:47.732Z,1057.50
2018-04-30T08:48:47.709Z,933.75
2018-04-30T08:49:47.678Z,894.38
2018-04-30T08:50:47.650Z,871.88
2018-04-30T08:51:47.624Z,793.13
2018-04-30T08:52:47.598Z,759.38
2018-04-30T08:53:47.570Z,810.00
2018-04-30T08:54:47.543Z,815.63
2018-04-30T08:55:47.516Z,832.50
2018-04-30T08:56:47.489Z,838.13
2018-04-30T08:57:47.463Z,849.38
2018-04-30T08:58:47.436Z,866.25
2018-04-30T08:59:47.409Z,871.88
2018-04-30T09:00:47.384Z,866.25
2018-04-30T09:01:47.363Z,894.38
2018-04-30T09:02:47.331Z,939.38
2018-04-30T09:03:47.304Z,939.38
2018-04-30T09:04:47.277Z,961.88
2018-04-30T09:05:47.251Z,978.75
2018-04-30T09:06:47.223Z,990.00
2018-04-30T09:07:47.197Z,984.38
2018-04-30T09:08:47.171Z,984.38
2018-04-30T09:09:47.183Z,956.25
2018-04-30T09:10:47.117Z,956.25
2018-04-30T09:11:47.093Z,950.63
2018-04-30T09:12:47.069Z,945.00
2018-04-30T09:13:47.089Z,939.38
2018-04-30T09:14:47.013Z,900.00
2018-04-30T09:15:46.986Z,843.75
2018-04-30T09:16:46.963Z,855.00
2018-04-30T09:17:46.934Z,838.13
2018-04-30T09:18:46.912Z,855.00
2018-04-30T09:19:46.882Z,849.38
2018-04-30T09:20:46.855Z,849.38
2018-04-30T09:21:46.829Z,843.75
2018-04-30T09:22:46.802Z,826.88
2018-04-30T09:23:46.863Z,821.25
2018-04-30T09:24:46.763Z,793.13
2018-04-30T09:25:46.723Z,781.88
2018-04-30T09:26:46.696Z,770.63
2018-04-30T09:27:46.670Z,770.63
2018-04-30T09:28:46.644Z,753.75
2018-04-30T09:29:46.618Z,753.75
2018-04-30T09:30:46.590Z,731.25
2018-04-30T09:31:46.570Z,714.38
2018-04-30T09:32:46.537Z,686.25
2018-04-30T09:33:46.514Z,680.63
2018-04-30T09:34:46.484Z,691.88
2018-04-30T09:35:46.457Z,691.88
2018-04-30T09:36:46.431Z,697.50
2018-04-30T09:37:46.408Z,686.25
2018-04-30T09:38:46.377Z,703.13
2018-04-30T09:39:46.353Z,691.88
2018-04-30T09:40:46.324Z,675.00
2018-04-30T09:41:46.297Z,663.75
2018-04-30T09:42:46.269Z,646.88
2018-04-30T09:43:46.242Z,630.00
2018-04-30T09:44:46.215Z,478.13
2018-04-30T09:45:46.194Z,371.25
2018-04-30T09:46:46.159Z,365.63
2018-04-30T09:47:46.131Z,360.00
2018-04-30T09:48:46.103Z,365.63
2018-04-30T09:49:46.085Z,365.63
2018-04-30T09:50:46.048Z,365.63
2018-04-30T09:51:46.015Z,365.63
2018-04-30T09:52:45.985Z,371.25
2018-04-30T09:53:45.959Z,376.88
2018-04-30T09:54:45.923Z,376.88
2018-04-30T09:55:45.892Z,382.50
2018-04-30T09:56:45.860Z,376.88
2018-04-30T09:57:45.859Z,320.63
2018-04-30T09:58:45.797Z,382.50
2018-04-30T09:59:45.765Z,416.25
2018-04-30T10:00:45.732Z,427.50
2018-04-30T10:01:45.700Z,405.00
2018-04-30T10:02:45.665Z,410.63
2018-04-30T10:03:45.633Z,399.38
2018-04-30T10:04:45.604Z,382.50
2018-04-30T10:05:45.572Z,376.88
2018-04-30T10:06:45.532Z,376.88
2018-04-30T10:07:45.499Z,376.88
2018-04-30T10:08:45.465Z,371.25
2018-04-30T10:09:45.431Z,371.25
2018-04-30T10:10:45.397Z,376.88
2018-04-30T10:11:45.362Z,376.88
2018-04-30T10:12:45.328Z,388.13
2018-04-30T10:13:45.294Z,292.50
2018-04-30T10:14:45.259Z,275.63
2018-04-30T10:15:45.224Z,303.75
2018-04-30T10:16:45.194Z,410.63
2018-04-30T10:17:45.227Z,382.50
2018-04-30T10:18:45.120Z,483.75
2018-04-30T10:19:45.088Z,450.00
2018-04-30T10:20:45.050Z,461.25
2018-04-30T10:21:45.015Z,466.88
2018-04-30T10:22:44.979Z,461.25
2018-04-30T10:23:45.002Z,427.50
2018-04-30T10:24:44.916Z,438.75
2018-04-30T10:25:44.881Z,371.25
2018-04-30T10:26:44.838Z,348.75
2018-04-30T10:27:44.803Z,354.38
2018-04-30T10:28:44.768Z,343.13
2018-04-30T10:29:44.733Z,331.88
2018-04-30T10:30:44.698Z,348.75
2018-04-30T10:31:44.700Z,399.38
2018-04-30T10:32:44.626Z,348.75
2018-04-30T10:33:44.591Z,343.13
2018-04-30T10:34:44.557Z,337.50
2018-04-30T10:35:44.518Z,348.75
2018-04-30T10:36:44.482Z,348.75
2018-04-30T10:37:44.497Z,326.25
2018-04-30T10:38:44.410Z,286.88
2018-04-30T10:39:44.376Z,270.00
2018-04-30T10:40:44.339Z,264.38
2018-04-30T10:41:44.304Z,264.38
2018-04-30T10:42:44.267Z,264.38
2018-04-30T10:43:44.231Z,258.75
2018-04-30T10:44:44.198Z,247.50
2018-04-30T10:45:44.233Z,236.25
2018-04-30T10:46:44.121Z,230.63
2018-04-30T10:47:44.087Z,247.50
2018-04-30T10:48:44.049Z,275.63
2018-04-30T10:49:44.013Z,303.75
2018-04-30T10:50:43.975Z,326.25
2018-04-30T10:51:44.074Z,331.88
2018-04-30T10:52:43.906Z,315.00
2018-04-30T10:53:43.865Z,320.63
2018-04-30T10:54:43.833Z,343.13
2018-04-30T10:55:43.798Z,354.38
2018-04-30T10:56:43.754Z,416.25
2018-04-30T10:57:43.717Z,393.75
2018-04-30T10:58:43.686Z,348.75
2018-04-30T10:59:43.643Z,303.75
2018-04-30T11:00:43.607Z,275.63
2018-04-30T11:01:43.569Z,258.75
2018-04-30T11:02:43.609Z,292.50
2018-04-30T11:03:43.494Z,360.00
2018-04-30T11:04:43.463Z,405.00
2018-04-30T11:05:43.426Z,410.63
2018-04-30T11:06:43.383Z,438.75
2018-04-30T11:07:43.346Z,438.75
2018-04-30T11:08:43.310Z,438.75
2018-04-30T11:09:43.273Z,472.50
2018-04-30T11:10:43.235Z,388.13
2018-04-30T11:11:43.200Z,337.50
2018-04-30T11:12:43.162Z,281.25
2018-04-30T11:13:43.125Z,236.25
2018-04-30T11:14:43.091Z,202.50
2018-04-30T11:15:43.052Z,174.38
2018-04-30T11:16:43.015Z,157.50
2018-04-30T11:17:42.978Z,146.25
2018-04-30T11:18:42.941Z,157.50
2018-04-30T11:19:42.958Z,157.50
2018-04-30T11:20:42.868Z,146.25
2018-04-30T11:21:42.837Z,140.63
2018-04-30T11:22:42.873Z,163.13
2018-04-30T11:23:42.756Z,191.25
2018-04-30T11:24:42.719Z,230.63
2018-04-30T11:25:42.682Z,253.13
2018-04-30T11:26:42.648Z,258.75
2018-04-30T11:27:42.679Z,253.13
2018-04-30T11:28:42.569Z,236.25
2018-04-30T11:29:42.532Z,208.13
2018-04-30T11:30:42.493Z,168.75
2018-04-30T11:31:42.456Z,135.00
2018-04-30T11:32:42.418Z,112.50
2018-04-30T11:33:42.380Z,101.25
2018-04-30T11:34:42.341Z,106.88
2018-04-30T11:35:42.303Z,118.13
2018-04-30T11:36:42.270Z,129.38
2018-04-30T11:37:42.228Z,157.50
2018-04-30T11:38:42.188Z,180.00
2018-04-30T11:39:42.151Z,180.00
2018-04-30T11:40:42.111Z,168.75
2018-04-30T11:41:42.076Z,174.38
2018-04-30T11:42:42.034Z,208.13
2018-04-30T11:43:41.995Z,241.88
2018-04-30T11:44:41.956Z,264.38
2018-04-30T11:45:41.918Z,275.63
2018-04-30T11:46:41.878Z,275.63
2018-04-30T11:47:41.840Z,258.75
2018-04-30T11:48:41.801Z,236.25
2018-04-30T11:49:41.763Z,208.13
2018-04-30T11:50:41.723Z,196.88
2018-04-30T11:51:41.685Z,196.88
2018-04-30T11:52:41.648Z,168.75
2018-04-30T11:53:41.608Z,146.25
2018-04-30T11:54:41.569Z,146.25
2018-04-30T11:55:41.530Z,168.75
2018-04-30T11:56:41.492Z,180.00
2018-04-30T11:57:41.453Z,191.25
2018-04-30T11:58:41.492Z,202.50
2018-04-30T11:59:41.432Z,196.88
2018-04-30T12:00:41.340Z,219.38
2018-04-30T12:01:41.303Z,264.38
2018-04-30T12:02:41.259Z,286.88
2018-04-30T12:03:41.221Z,270.00
2018-04-30T12:04:41.182Z,258.75
2018-04-30T12:05:41.144Z,264.38
2018-04-30T12:06:41.104Z,225.00
2018-04-30T12:07:41.067Z,202.50
2018-04-30T12:08:41.029Z,185.63
2018-04-30T12:09:40.989Z,185.63
2018-04-30T12:10:40.949Z,185.63
2018-04-30T12:11:40.911Z,196.88
2018-04-30T12:12:40.873Z,202.50
2018-04-30T12:13:40.905Z,202.50
2018-04-30T12:14:40.796Z,180.00
2018-04-30T12:15:40.757Z,168.75
2018-04-30T12:16:40.730Z,174.38
2018-04-30T12:17:40.680Z,185.63
2018-04-30T12:18:40.641Z,185.63
2018-04-30T12:19:40.608Z,185.63
2018-04-30T12:20:40.565Z,174.38
2018-04-30T12:21:40.529Z,163.13
2018-04-30T12:22:40.487Z,151.88
2018-04-30T12:23:40.449Z,140.63
2018-04-30T12:24:40.411Z,135.00
2018-04-30T12:25:40.375Z,129.38
2018-04-30T12:26:40.336Z,129.38
2018-04-30T12:27:40.295Z,140.63
2018-04-30T12:28:40.256Z,146.25
2018-04-30T12:29:40.300Z,151.88
2018-04-30T12:30:40.177Z,157.50
2018-04-30T12:31:40.138Z,180.00
2018-04-30T12:32:40.099Z,196.88
2018-04-30T12:33:40.060Z,208.13
2018-04-30T12:34:40.020Z,208.13
2018-04-30T12:35:40.087Z,202.50
2018-04-30T12:36:39.941Z,202.50
2018-04-30T12:37:39.903Z,213.75